Time;durP1;ratioP1;P1;durP2;ratioP2;P2;SDS_P1;SDS_P2;PMS_P1;PMS_P2;Temp;Humidity;BMP_temperature;BMP_pressure;BME280_temperature;BME280_humidity;BME280_pressure;Samples;Min_cycle;Max_cycle;Signal;HPM_P1;HPM_P2
2021/07/29 00:01:50;;;;;;;5.47;3.70;;;17.20;22.20;;;;;;5080320;28;20045;-71
2021/07/29 00:04:40;;;;;;;5.95;3.33;;;17.10;22.50;;;;;;5081925;28;20134;-71
2021/07/29 00:07:29;;;;;;;4.88;3.58;;;17.00;23.20;;;;;;5076746;28;20143;-71
2021/07/29 00:10:18;;;;;;;7.53;5.15;;;17.00;23.00;;;;;;5079042;28;20062;-71
2021/07/29 00:13:06;;;;;;;5.25;3.97;;;17.00;22.90;;;;;;5066461;28;20047;-71
2021/07/29 00:15:55;;;;;;;4.22;3.30;;;17.00;22.70;;;;;;5083384;28;20052;-71
2021/07/29 00:19:03;;;;;;;3.65;2.85;;;17.00;21.80;;;;;;5077083;28;20414;-70
2021/07/29 00:21:53;;;;;;;6.28;3.33;;;17.00;21.30;;;;;;5079933;28;20043;-71
2021/07/29 00:24:41;;;;;;;4.70;3.10;;;17.00;21.00;;;;;;5077556;28;20059;-71
2021/07/29 00:27:29;;;;;;;3.75;2.70;;;17.00;19.70;;;;;;5078466;28;20057;-72
2021/07/29 00:30:21;;;;;;;4.10;2.80;;;17.10;18.80;;;;;;5064742;28;20113;-70
2021/07/29 00:33:09;;;;;;;3.00;2.70;;;17.00;18.20;;;;;;5082621;28;20048;-70
2021/07/29 00:35:58;;;;;;;3.67;3.10;;;16.90;19.60;;;;;;5079108;28;20422;-71
2021/07/29 00:38:47;;;;;;;3.50;3.00;;;16.90;18.80;;;;;;5075208;28;20067;-70
2021/07/29 00:41:37;;;;;;;5.72;3.05;;;17.00;19.00;;;;;;5068843;28;20625;-70
2021/07/29 00:44:25;;;;;;;5.03;2.70;;;17.00;18.50;;;;;;5079528;28;20123;-71
2021/07/29 00:47:15;;;;;;;3.70;2.92;;;17.00;18.10;;;;;;5078708;28;20106;-71
2021/07/29 00:50:04;;;;;;;4.65;2.97;;;17.00;18.20;;;;;;5077174;28;20044;-71
2021/07/29 00:52:52;;;;;;;4.05;2.88;;;16.90;19.60;;;;;;5076123;28;20128;-71
2021/07/29 00:55:43;;;;;;;3.88;2.58;;;16.90;19.70;;;;;;5075102;28;20055;-71
2021/07/29 00:58:31;;;;;;;3.60;3.03;;;16.80;19.70;;;;;;5075523;28;20052;-71
2021/07/29 01:01:20;;;;;;;4.20;2.92;;;16.70;19.70;;;;;;5079697;28;20043;-71
2021/07/29 01:04:09;;;;;;;9.85;2.88;;;16.70;20.20;;;;;;5074884;28;20044;-70
2021/07/29 01:06:57;;;;;;;3.25;2.67;;;16.70;19.70;;;;;;5074677;28;20040;-70
2021/07/29 01:09:49;;;;;;;5.35;2.90;;;16.70;20.30;;;;;;5053782;28;20054;-71
2021/07/29 01:12:39;;;;;;;4.85;3.05;;;16.50;22.20;;;;;;5082141;28;20423;-71
2021/07/29 01:15:27;;;;;;;5.97;2.88;;;16.60;22.20;;;;;;5074844;28;20066;-71
2021/07/29 01:18:16;;;;;;;6.50;2.80;;;16.50;21.80;;;;;;5074198;28;20049;-70
2021/07/29 01:21:06;;;;;;;3.63;2.95;;;16.40;22.40;;;;;;5075489;28;20047;-70
2021/07/29 01:23:54;;;;;;;4.30;3.17;;;16.30;23.60;;;;;;5066793;28;20068;-70
2021/07/29 01:26:42;;;;;;;6.90;3.85;;;16.10;25.00;;;;;;5075785;28;20135;-71
2021/07/29 01:29:31;;;;;;;8.38;3.15;;;16.10;24.50;;;;;;5078851;28;20043;-71
2021/07/29 01:32:19;;;;;;;3.65;3.08;;;16.20;24.00;;;;;;5071913;28;20051;-71
2021/07/29 01:35:09;;;;;;;4.55;2.80;;;16.30;22.90;;;;;;5078300;28;20044;-71
2021/07/29 01:37:59;;;;;;;3.28;2.75;;;16.30;21.50;;;;;;5075539;28;20414;-72
2021/07/29 01:40:47;;;;;;;3.60;2.97;;;16.30;21.20;;;;;;5061671;28;20054;-71
2021/07/29 01:43:36;;;;;;;3.20;2.80;;;16.30;21.00;;;;;;5078343;28;20418;-71
2021/07/29 01:46:24;;;;;;;4.15;3.17;;;16.30;21.10;;;;;;5075648;28;20053;-71
2021/07/29 01:49:19;;;;;;;4.60;3.30;;;16.20;21.80;;;;;;5065797;28;20040;-71
2021/07/29 01:52:09;;;;;;;6.13;3.35;;;16.20;21.50;;;;;;5078345;28;20040;-71
2021/07/29 01:55:01;;;;;;;4.68;3.28;;;16.20;20.70;;;;;;5075907;28;20044;-71
2021/07/29 01:57:50;;;;;;;7.47;3.10;;;16.20;21.20;;;;;;5074574;28;20628;-70
2021/07/29 02:00:40;;;;;;;3.97;3.10;;;16.20;21.00;;;;;;5079400;28;20388;-71
2021/07/29 02:03:28;;;;;;;4.43;3.22;;;16.10;22.50;;;;;;5078945;28;20443;-71
2021/07/29 02:06:17;;;;;;;4.07;2.78;;;16.10;22.90;;;;;;5062329;28;20041;-71
2021/07/29 02:09:06;;;;;;;5.28;3.65;;;16.00;23.00;;;;;;5075631;28;20063;-70
2021/07/29 02:11:55;;;;;;;3.50;3.00;;;16.00;23.50;;;;;;5062616;28;20797;-69
2021/07/29 02:14:44;;;;;;;4.68;3.20;;;16.00;22.90;;;;;;5077966;28;20047;-70
2021/07/29 02:17:32;;;;;;;5.43;3.20;;;16.00;23.50;;;;;;5084417;28;20093;-70
2021/07/29 02:20:21;;;;;;;6.88;3.58;;;16.00;23.60;;;;;;5082374;28;20058;-70
2021/07/29 02:23:09;;;;;;;4.28;3.30;;;15.90;24.40;;;;;;5081647;28;20051;-70
2021/07/29 02:25:58;;;;;;;3.75;2.92;;;15.90;25.10;;;;;;5084677;28;20044;-71
2021/07/29 02:28:48;;;;;;;5.32;3.30;;;15.90;25.40;;;;;;5082434;28;20055;-72
2021/07/29 02:31:36;;;;;;;4.07;3.25;;;15.80;26.00;;;;;;5081070;28;20052;-70
2021/07/29 02:34:24;;;;;;;4.90;3.25;;;15.80;26.30;;;;;;5077550;28;20051;-70
2021/07/29 02:37:13;;;;;;;4.53;3.30;;;15.80;27.00;;;;;;5080472;28;20220;-70
2021/07/29 02:40:01;;;;;;;4.28;3.38;;;15.80;27.70;;;;;;5084928;28;20127;-70
2021/07/29 02:42:49;;;;;;;5.78;3.47;;;15.80;27.80;;;;;;5082257;28;20032;-70
2021/07/29 02:45:39;;;;;;;5.32;3.17;;;15.80;27.70;;;;;;5076757;28;20679;-71
2021/07/29 02:48:27;;;;;;;5.32;3.40;;;15.80;28.30;;;;;;5080954;28;20046;-71
2021/07/29 02:51:16;;;;;;;5.05;3.58;;;15.80;28.60;;;;;;5086014;28;20487;-71
2021/07/29 02:54:04;;;;;;;6.45;3.20;;;15.80;27.90;;;;;;5083568;28;20522;-70
2021/07/29 02:56:53;;;;;;;5.25;3.42;;;15.80;27.90;;;;;;5075993;28;20048;-70
2021/07/29 02:59:41;;;;;;;5.03;3.42;;;15.70;29.40;;;;;;5077318;28;20601;-70
2021/07/29 03:02:31;;;;;;;4.78;3.20;;;15.80;29.10;;;;;;5081375;28;20036;-70
2021/07/29 03:05:19;;;;;;;6.68;3.85;;;15.60;29.40;;;;;;5079946;28;20104;-70
2021/07/29 03:08:08;;;;;;;6.55;3.95;;;15.50;30.30;;;;;;5082036;28;20050;-70
2021/07/29 03:10:58;;;;;;;4.88;3.28;;;15.60;31.10;;;;;;5079881;28;20055;-71
2021/07/29 03:13:46;;;;;;;5.13;3.67;;;15.60;29.90;;;;;;5079732;28;20115;-71
2021/07/29 03:16:35;;;;;;;3.78;3.38;;;15.70;29.70;;;;;;5078571;28;20047;-69
2021/07/29 03:19:25;;;;;;;6.68;3.90;;;15.80;28.60;;;;;;5084333;28;20048;-71
2021/07/29 03:22:13;;;;;;;6.07;4.07;;;15.70;29.80;;;;;;5082835;28;20064;-71
2021/07/29 03:25:01;;;;;;;4.40;3.60;;;15.80;29.30;;;;;;5077311;28;20108;-70
2021/07/29 03:27:50;;;;;;;6.10;3.85;;;15.70;29.70;;;;;;5079106;28;20048;-70
2021/07/29 03:30:38;;;;;;;5.50;3.83;;;15.60;30.60;;;;;;5063730;28;20048;-70
2021/07/29 03:33:26;;;;;;;6.38;3.90;;;15.70;31.20;;;;;;5082406;28;20044;-71
2021/07/29 03:36:16;;;;;;;7.55;4.47;;;15.70;31.00;;;;;;5075623;28;20044;-70
2021/07/29 03:39:06;;;;;;;7.70;4.50;;;15.70;31.10;;;;;;5075765;28;20048;-70
2021/07/29 03:41:55;;;;;;;6.03;3.67;;;15.70;31.30;;;;;;5083456;28;20056;-70
2021/07/29 03:44:43;;;;;;;6.32;4.32;;;15.70;31.30;;;;;;5084991;28;20104;-70
2021/07/29 03:47:31;;;;;;;7.10;3.92;;;15.70;31.60;;;;;;5076916;28;20512;-71
2021/07/29 03:50:21;;;;;;;5.68;4.13;;;15.70;32.00;;;;;;5074271;28;20499;-70
2021/07/29 03:53:10;;;;;;;7.57;3.95;;;15.70;31.50;;;;;;5080522;28;20055;-70
2021/07/29 03:55:59;;;;;;;5.13;3.97;;;15.70;33.00;;;;;;5083629;28;20048;-71
2021/07/29 03:58:47;;;;;;;5.40;3.90;;;15.70;32.70;;;;;;5081167;28;20059;-70
2021/07/29 04:01:35;;;;;;;5.70;4.25;;;15.80;32.50;;;;;;5075333;28;20150;-70
2021/07/29 04:04:27;;;;;;;4.80;4.03;;;15.80;31.40;;;;;;5063023;28;20051;-70
2021/07/29 04:07:16;;;;;;;6.68;4.32;;;15.90;30.90;;;;;;5065075;28;20055;-70
2021/07/29 04:10:07;;;;;;;6.22;4.28;;;15.90;31.50;;;;;;5082108;28;20083;-72
2021/07/29 04:12:55;;;;;;;5.05;4.22;;;15.90;31.40;;;;;;5077305;28;20052;-71
2021/07/29 04:15:43;;;;;;;8.57;4.40;;;15.90;31.00;;;;;;5078629;28;20056;-71
2021/07/29 04:18:32;;;;;;;6.55;4.57;;;15.90;31.50;;;;;;5073619;28;20060;-70
2021/07/29 04:21:20;;;;;;;7.68;4.13;;;16.00;30.00;;;;;;5083760;28;20555;-71
2021/07/29 04:24:09;;;;;;;8.48;4.13;;;16.50;26.50;;;;;;5081033;28;20047;-71
2021/07/29 04:26:59;;;;;;;8.15;4.30;;;17.30;18.40;;;;;;5079459;28;20048;-71
2021/07/29 04:29:47;;;;;;;4.80;3.83;;;17.80;13.90;;;;;;5080791;28;20506;-70
2021/07/29 04:32:36;;;;;;;6.47;4.18;;;18.30;12.60;;;;;;5075552;28;20483;-71
2021/07/29 04:35:25;;;;;;;4.78;3.75;;;18.40;9.80;;;;;;5066657;28;20052;-71
2021/07/29 04:38:13;;;;;;;5.35;3.80;;;18.40;9.80;;;;;;5048855;28;20134;-70
2021/07/29 04:41:02;;;;;;;4.60;3.85;;;17.80;12.50;;;;;;5078017;28;20050;-71
2021/07/29 04:43:53;;;;;;;6.75;3.95;;;18.00;11.30;;;;;;5066244;28;20434;-70
2021/07/29 04:46:43;;;;;;;7.57;4.15;;;17.70;13.70;;;;;;5079397;28;20079;-70
2021/07/29 04:49:32;;;;;;;10.63;4.53;;;18.60;7.10;;;;;;5067072;28;20055;-70
2021/07/29 04:52:20;;;;;;;6.75;4.20;;;19.60;3.60;;;;;;5080605;28;20197;-71
2021/07/29 04:55:09;;;;;;;7.22;3.90;;;20.10;1.00;;;;;;5074829;28;20047;-71
2021/07/29 04:58:02;;;;;;;5.43;3.90;;;20.00;1.00;;;;;;5077360;28;20052;-71
2021/07/29 05:00:52;;;;;;;6.43;4.28;;;18.90;2.50;;;;;;5078832;28;20047;-71
2021/07/29 05:03:40;;;;;;;6.30;3.75;;;19.30;2.90;;;;;;5082876;28;20097;-70
2021/07/29 05:06:29;;;;;;;6.25;4.10;;;19.60;1.00;;;;;;5074699;28;20140;-71
2021/07/29 05:09:17;;;;;;;6.18;4.03;;;18.20;7.10;;;;;;5078106;28;20528;-70
2021/07/29 05:12:06;;;;;;;7.50;4.25;;;18.90;6.40;;;;;;5080527;28;20060;-70
2021/07/29 05:14:56;;;;;;;6.78;3.88;;;18.50;6.60;;;;;;5083833;28;20193;-70
2021/07/29 05:17:46;;;;;;;6.53;3.83;;;20.00;1.00;;;;;;5078232;28;20066;-71
2021/07/29 05:20:35;;;;;;;6.72;3.85;;;21.50;1.00;;;;;;5076843;28;20044;-70
2021/07/29 05:23:23;;;;;;;6.18;3.90;;;21.10;1.00;;;;;;5076420;28;20056;-71
2021/07/29 05:26:16;;;;;;;6.10;3.78;;;21.40;1.00;;;;;;5065658;28;20194;-71
2021/07/29 05:29:04;;;;;;;5.20;3.95;;;21.80;1.00;;;;;;5062310;28;20048;-71
2021/07/29 05:31:52;;;;;;;10.77;4.50;;;20.30;1.00;;;;;;5061031;28;20221;-70
2021/07/29 05:34:42;;;;;;;4.25;3.28;;;20.40;1.00;;;;;;5075617;28;20040;-70
2021/07/29 05:37:30;;;;;;;7.43;3.88;;;21.00;1.00;;;;;;5079218;28;20094;-70
2021/07/29 05:40:20;;;;;;;10.30;3.50;;;20.20;1.00;;;;;;5077932;28;20060;-71
2021/07/29 05:43:08;;;;;;;5.38;3.33;;;20.40;1.00;;;;;;5076164;28;20052;-71
2021/07/29 05:45:57;;;;;;;6.50;2.90;;;20.60;1.00;;;;;;5072553;28;20032;-71
2021/07/29 05:48:45;;;;;;;7.53;3.08;;;21.10;1.00;;;;;;5077342;28;20051;-71
2021/07/29 05:51:35;;;;;;;5.50;2.65;;;23.00;1.00;;;;;;5082349;28;20063;-73
2021/07/29 05:54:23;;;;;;;6.38;3.15;;;21.50;1.00;;;;;;5085038;28;20493;-70
2021/07/29 05:57:11;;;;;;;4.75;2.88;;;20.30;1.00;;;;;;5079496;28;20554;-72
2021/07/29 06:00:00;;;;;;;4.60;2.75;;;19.80;1.00;;;;;;5076063;28;20531;-71
2021/07/29 06:02:49;;;;;;;2.97;2.63;;;19.70;1.00;;;;;;5083302;28;20063;-71
2021/07/29 06:05:38;;;;;;;5.07;2.85;;;19.90;1.30;;;;;;5084555;28;20118;-70
2021/07/29 06:08:28;;;;;;;3.78;2.65;;;20.00;1.10;;;;;;5081799;28;20059;-70
2021/07/29 06:11:16;;;;;;;3.92;2.50;;;20.10;1.00;;;;;;5080610;28;20158;-70
2021/07/29 06:14:05;;;;;;;7.30;2.80;;;19.90;1.00;;;;;;5080524;28;20101;-71
2021/07/29 06:16:54;;;;;;;3.85;2.30;;;20.40;1.00;;;;;;5085588;28;20135;-71
2021/07/29 06:19:43;;;;;;;3.70;2.40;;;20.60;1.00;;;;;;5083084;28;20503;-71
2021/07/29 06:22:31;;;;;;;6.15;2.58;;;20.70;1.00;;;;;;5066806;28;20133;-71
2021/07/29 06:25:22;;;;;;;3.47;2.22;;;21.60;1.00;;;;;;5077278;28;20511;-71
2021/07/29 06:28:12;;;;;;;3.97;2.00;;;22.10;1.00;;;;;;5081917;28;20054;-70
2021/07/29 06:31:01;;;;;;;2.58;1.95;;;21.20;1.00;;;;;;5083566;28;20105;-71
2021/07/29 06:33:49;;;;;;;3.38;2.20;;;20.90;1.00;;;;;;5081029;28;20051;-71
2021/07/29 06:36:38;;;;;;;4.95;2.40;;;20.80;1.00;;;;;;5075546;28;20150;-71
2021/07/29 06:39:26;;;;;;;5.10;2.20;;;21.20;1.00;;;;;;5079686;28;20052;-71
2021/07/29 06:42:16;;;;;;;5.38;2.30;;;21.20;1.00;;;;;;5067842;28;20048;-70
2021/07/29 06:45:05;;;;;;;4.25;2.30;;;21.10;1.00;;;;;;5080261;28;20430;-71
2021/07/29 06:47:53;;;;;;;3.17;2.33;;;21.20;1.00;;;;;;5078963;28;20546;-70
2021/07/29 06:50:41;;;;;;;3.22;2.17;;;21.30;1.00;;;;;;5075164;28;20074;-71
2021/07/29 06:53:30;;;;;;;3.10;2.30;;;21.40;1.00;;;;;;5082820;28;20080;-71
2021/07/29 06:56:19;;;;;;;3.03;2.40;;;21.30;1.00;;;;;;5084083;28;20166;-70
2021/07/29 06:59:08;;;;;;;2.50;2.00;;;21.70;1.00;;;;;;5077994;28;20044;-70
2021/07/29 07:01:57;;;;;;;3.65;2.13;;;21.80;1.00;;;;;;5080481;28;20044;-72
2021/07/29 07:04:45;;;;;;;5.00;2.65;;;21.90;1.00;;;;;;5079132;28;20036;-70
2021/07/29 07:07:34;;;;;;;4.78;2.25;;;21.80;1.00;;;;;;5084368;28;20071;-71
2021/07/29 07:10:22;;;;;;;2.33;1.98;;;21.60;1.00;;;;;;5080165;28;20500;-70
2021/07/29 07:13:11;;;;;;;3.42;2.40;;;21.70;1.00;;;;;;5079289;28;20040;-70
2021/07/29 07:16:00;;;;;;;4.50;2.22;;;22.00;1.00;;;;;;5065452;28;20476;-71
2021/07/29 07:18:49;;;;;;;4.90;2.58;;;21.90;1.00;;;;;;5081480;28;20130;-70
2021/07/29 07:21:38;;;;;;;2.78;2.28;;;22.10;1.00;;;;;;5081994;28;20048;-71
2021/07/29 07:24:27;;;;;;;4.45;2.65;;;22.20;1.00;;;;;;5079537;28;20467;-71
2021/07/29 07:27:15;;;;;;;5.03;2.50;;;22.40;1.00;;;;;;5079656;28;20778;-71
2021/07/29 07:30:04;;;;;;;3.67;2.28;;;22.10;1.00;;;;;;5075432;28;20052;-71
2021/07/29 07:32:54;;;;;;;5.20;2.17;;;21.30;1.00;;;;;;5081556;28;20131;-71
2021/07/29 07:35:42;;;;;;;5.10;2.58;;;21.10;1.00;;;;;;5083037;28;20044;-70
2021/07/29 07:38:31;;;;;;;4.18;2.20;;;20.60;1.00;;;;;;5067326;28;20051;-71
2021/07/29 07:41:20;;;;;;;4.63;2.60;;;20.60;1.00;;;;;;5076242;28;20071;-72
2021/07/29 07:44:08;;;;;;;3.95;2.65;;;20.30;1.00;;;;;;5079149;28;20511;-71
2021/07/29 07:46:56;;;;;;;4.30;2.60;;;20.20;1.00;;;;;;5081256;28;20040;-70
2021/07/29 07:49:46;;;;;;;2.80;2.15;;;20.10;1.00;;;;;;5080716;28;20064;-71
2021/07/29 07:52:35;;;;;;;10.65;2.40;;;20.20;1.00;;;;;;5078506;28;20419;-71
2021/07/29 07:55:23;;;;;;;4.28;2.58;;;19.90;1.00;;;;;;5074554;28;20059;-71
2021/07/29 07:58:11;;;;;;;5.07;2.72;;;20.30;1.00;;;;;;5079478;28;20182;-71
2021/07/29 08:01:03;;;;;;;4.55;2.72;;;20.50;1.00;;;;;;5080005;28;20066;-71
2021/07/29 08:03:52;;;;;;;4.55;2.70;;;21.50;1.00;;;;;;5082950;28;20058;-72
2021/07/29 08:06:41;;;;;;;4.68;2.40;;;21.60;1.00;;;;;;5077130;28;20044;-71
2021/07/29 08:09:30;;;;;;;4.75;2.53;;;21.70;1.00;;;;;;5073534;28;20067;-72
2021/07/29 08:12:18;;;;;;;3.72;2.65;;;21.80;1.00;;;;;;5082016;28;20052;-71
2021/07/29 08:15:07;;;;;;;3.88;2.65;;;21.20;1.00;;;;;;5082748;28;20044;-71
2021/07/29 08:17:56;;;;;;;5.22;2.63;;;21.10;1.00;;;;;;5080289;28;20543;-70
2021/07/29 08:20:45;;;;;;;5.05;2.88;;;21.00;1.00;;;;;;5075851;28;20056;-70
2021/07/29 08:23:34;;;;;;;4.00;2.92;;;21.10;1.00;;;;;;5078393;28;20443;-70
2021/07/29 08:26:23;;;;;;;5.78;2.58;;;20.50;1.00;;;;;;5076896;28;20430;-71
2021/07/29 08:29:11;;;;;;;5.78;2.97;;;20.50;1.00;;;;;;5080534;28;20052;-71
2021/07/29 08:32:00;;;;;;;4.22;2.88;;;20.30;1.00;;;;;;5074902;28;20113;-72
2021/07/29 08:34:49;;;;;;;4.72;2.80;;;20.90;1.00;;;;;;5061844;28;20052;-71
2021/07/29 08:37:38;;;;;;;3.53;2.55;;;20.90;1.00;;;;;;5081214;28;20157;-71
2021/07/29 08:40:28;;;;;;;6.22;2.92;;;20.50;1.00;;;;;;5081661;28;20622;-71
2021/07/29 08:43:16;;;;;;;3.58;2.53;;;21.10;1.00;;;;;;5079522;28;20050;-71
2021/07/29 08:46:10;;;;;;;3.75;2.55;;;20.80;1.00;;;;;;5073884;28;20127;-71
2021/07/29 08:48:58;;;;;;;5.38;2.60;;;21.10;1.00;;;;;;5077197;28;20052;-70
2021/07/29 08:51:47;;;;;;;5.00;2.80;;;21.40;1.00;;;;;;5082567;28;20055;-71
2021/07/29 08:54:39;;;;;;;7.22;2.72;;;21.10;1.00;;;;;;5083848;28;20075;-69
2021/07/29 08:57:30;;;;;;;4.93;2.67;;;21.60;1.00;;;;;;5077568;28;20044;-71
2021/07/29 09:00:20;;;;;;;5.80;2.53;;;21.30;1.00;;;;;;5076447;28;20411;-71
2021/07/29 09:03:24;;;;;;;3.33;2.75;;;21.50;1.00;;;;;;5081590;28;20389;-71
2021/07/29 09:06:16;;;;;;;4.40;2.53;;;21.90;1.00;;;;;;5077708;28;20068;-71
2021/07/29 09:09:04;;;;;;;4.65;2.80;;;22.10;1.00;;;;;;5079219;28;20043;-70
2021/07/29 09:11:53;;;;;;;3.22;2.55;;;22.00;1.00;;;;;;5080086;28;20044;-71
2021/07/29 09:14:42;;;;;;;3.45;2.63;;;22.00;1.00;;;;;;5063193;28;20504;-71
2021/07/29 09:17:44;;;;;;;4.22;2.30;;;22.00;1.00;;;;;;5078829;28;20540;-71
2021/07/29 09:20:33;;;;;;;4.63;2.60;;;21.50;1.00;;;;;;5076197;28;20052;-71
2021/07/29 09:23:22;;;;;;;4.20;2.70;;;21.80;1.00;;;;;;5080536;28;20043;-71
2021/07/29 09:26:10;;;;;;;3.95;2.60;;;22.00;1.00;;;;;;5073964;28;20055;-71
2021/07/29 09:28:59;;;;;;;4.68;2.60;;;21.90;1.00;;;;;;5074766;28;20044;-71
2021/07/29 09:31:49;;;;;;;3.83;2.58;;;21.50;1.00;;;;;;5064774;28;20134;-70
2021/07/29 09:34:45;;;;;;;3.72;2.67;;;21.70;1.00;;;;;;5077860;28;20060;-71
2021/07/29 09:37:33;;;;;;;4.43;2.95;;;21.60;1.00;;;;;;5075754;28;20131;-71
2021/07/29 09:40:23;;;;;;;5.18;2.90;;;22.10;1.00;;;;;;5074625;28;20426;-71
2021/07/29 09:43:13;;;;;;;7.18;2.45;;;21.90;1.00;;;;;;5076044;28;20058;-71
2021/07/29 09:46:03;;;;;;;7.70;3.00;;;21.80;1.00;;;;;;5074796;28;20070;-71
2021/07/29 09:48:54;;;;;;;3.72;2.58;;;22.90;1.00;;;;;;5080442;28;20048;-72
2021/07/29 09:51:42;;;;;;;4.18;2.30;;;22.00;1.00;;;;;;5077415;28;20053;-71
2021/07/29 09:54:31;;;;;;;5.03;3.00;;;22.80;1.00;;;;;;5071219;28;20466;-71
2021/07/29 09:57:19;;;;;;;3.65;2.78;;;22.80;1.00;;;;;;5078471;28;20051;-72
2021/07/29 10:00:09;;;;;;;5.18;3.38;;;22.60;1.00;;;;;;5075151;28;20070;-70
2021/07/29 10:03:01;;;;;;;4.57;2.90;;;22.60;1.00;;;;;;5077544;28;20043;-70
2021/07/29 10:05:53;;;;;;;5.13;2.58;;;22.60;1.00;;;;;;5075415;28;20040;-73
2021/07/29 10:08:45;;;;;;;5.32;2.92;;;21.90;1.00;;;;;;5074575;28;20059;-72
2021/07/29 10:11:36;;;;;;;3.35;2.90;;;22.50;1.00;;;;;;5072017;28;20629;-71
2021/07/29 10:14:48;;;;;;;4.60;3.33;;;22.80;1.00;;;;;;5080589;28;20575;-71
2021/07/29 10:18:06;;;;;;;3.40;2.67;;;22.70;1.00;;;;;;5079135;28;20048;-71
2021/07/29 10:21:23;;;;;;;3.05;2.75;;;22.90;1.00;;;;;;5072634;28;20116;-70
2021/07/29 10:24:13;;;;;;;3.85;2.95;;;23.40;1.00;;;;;;5079908;28;20597;-72
2021/07/29 10:27:09;;;;;;;5.88;3.10;;;23.00;1.00;;;;;;5070510;28;20082;-72
2021/07/29 10:30:36;;;;;;;2.72;2.33;;;22.60;1.00;;;;;;5074020;28;20423;-71
2021/07/29 10:33:28;;;;;;;3.17;2.58;;;22.90;1.00;;;;;;5063027;28;20072;-72
2021/07/29 10:36:44;;;;;;;5.30;2.95;;;22.60;1.00;;;;;;5078268;28;20044;-71
2021/07/29 10:39:53;;;;;;;4.90;2.95;;;23.10;1.00;;;;;;5070323;28;20463;-70
2021/07/29 10:42:41;;;;;;;4.90;3.15;;;23.10;1.00;;;;;;5084438;28;20048;-71
2021/07/29 10:45:48;;;;;;;3.00;2.42;;;23.70;1.00;;;;;;5064740;28;20051;-72
2021/07/29 10:49:12;;;;;;;7.78;2.80;;;22.80;1.00;;;;;;5063803;28;20451;-71
2021/07/29 10:52:09;;;;;;;4.43;2.85;;;23.40;1.00;;;;;;5078822;28;20052;-71
2021/07/29 10:54:58;;;;;;;4.75;3.10;;;22.30;1.00;;;;;;5082651;28;20055;-71
2021/07/29 10:58:04;;;;;;;4.15;3.20;;;22.20;1.00;;;;;;5081686;28;20051;-69
2021/07/29 11:00:55;;;;;;;7.47;3.05;;;22.20;1.00;;;;;;5077562;28;20051;-70
2021/07/29 11:03:50;;;;;;;2.95;2.65;;;22.20;1.00;;;;;;5066730;28;20547;-71
2021/07/29 11:06:39;;;;;;;5.40;2.88;;;22.40;1.00;;;;;;5077110;28;20041;-70
2021/07/29 11:09:33;;;;;;;4.65;3.22;;;22.60;1.00;;;;;;5080132;28;20134;-71
2021/07/29 11:12:21;;;;;;;4.47;3.03;;;23.30;1.00;;;;;;5078061;28;20120;-71
2021/07/29 11:15:10;;;;;;;4.97;3.33;;;23.30;1.00;;;;;;5065972;28;20124;-70
2021/07/29 11:18:10;;;;;;;3.25;2.95;;;23.50;1.00;;;;;;5066358;28;20045;-71
2021/07/29 11:21:13;;;;;;;4.28;2.70;;;23.20;1.00;;;;;;5077614;28;20032;-71
2021/07/29 11:24:03;;;;;;;4.70;3.10;;;23.20;1.00;;;;;;5064001;28;20047;-71
2021/07/29 11:26:59;;;;;;;;;;;23.20;1.00;;;;;;5081295;28;20044;-72
2021/07/29 11:29:59;;;;;;;6.28;2.85;;;23.60;1.00;;;;;;5068335;28;20034;-71
2021/07/29 11:32:47;;;;;;;3.47;2.97;;;22.80;1.00;;;;;;5080375;28;20228;-72
2021/07/29 11:35:36;;;;;;;4.85;3.03;;;23.70;1.00;;;;;;5078692;28;20177;-71
2021/07/29 11:38:26;;;;;;;5.32;3.15;;;23.40;1.00;;;;;;5076882;28;20624;-72
2021/07/29 11:41:14;;;;;;;4.50;2.88;;;22.90;1.00;;;;;;5079106;28;20040;-72
2021/07/29 11:44:05;;;;;;;3.63;2.72;;;23.00;1.00;;;;;;5083044;28;20048;-71
2021/07/29 11:46:54;;;;;;;3.55;2.90;;;23.40;1.00;;;;;;5079625;28;20147;-73
2021/07/29 11:49:48;;;;;;;4.38;2.92;;;23.40;1.00;;;;;;5076350;28;20044;-72
2021/07/29 11:52:50;;;;;;;4.10;3.05;;;23.40;1.00;;;;;;5080291;28;20151;-71
2021/07/29 11:55:40;;;;;;;4.95;3.15;;;22.90;1.00;;;;;;5080981;28;20379;-70
2021/07/29 11:58:33;;;;;;;4.90;2.90;;;23.20;1.00;;;;;;5081717;28;20117;-72
2021/07/29 12:01:23;;;;;;;4.47;2.88;;;23.70;1.00;;;;;;5072810;28;20127;-72
2021/07/29 12:04:12;;;;;;;3.88;2.72;;;24.20;1.00;;;;;;5076044;28;20136;-72
2021/07/29 12:07:01;;;;;;;2.95;2.53;;;24.00;1.00;;;;;;5081662;28;20132;-71
2021/07/29 12:09:50;;;;;;;4.53;2.83;;;23.00;1.00;;;;;;5077493;28;20784;-72
2021/07/29 12:12:40;;;;;;;3.75;2.85;;;23.30;1.00;;;;;;5080405;28;20210;-72
2021/07/29 12:15:29;;;;;;;4.53;2.55;;;23.00;1.00;;;;;;5064523;28;20087;-72
2021/07/29 12:18:20;;;;;;;4.03;2.60;;;23.40;1.00;;;;;;5074980;28;20556;-72
2021/07/29 12:21:08;;;;;;;3.88;3.00;;;23.30;1.00;;;;;;5063868;28;20068;-72
2021/07/29 12:23:57;;;;;;;4.90;3.10;;;23.60;1.00;;;;;;5081565;28;20412;-71
2021/07/29 12:27:07;;;;;;;3.80;2.97;;;23.30;1.00;;;;;;5078260;28;20068;-72
2021/07/29 12:29:57;;;;;;;6.55;2.67;;;23.20;1.00;;;;;;5077625;28;20052;-73
2021/07/29 12:32:46;;;;;;;5.63;3.15;;;23.60;1.00;;;;;;5064245;28;20495;-70
2021/07/29 12:35:36;;;;;;;8.50;3.25;;;23.90;1.00;;;;;;5060578;28;20055;-71
2021/07/29 12:38:29;;;;;;;4.28;2.70;;;24.10;1.00;;;;;;5082915;28;20048;-71
2021/07/29 12:41:30;;;;;;;4.82;3.05;;;23.60;1.00;;;;;;5066388;28;20138;-71
2021/07/29 12:44:20;;;;;;;4.63;2.47;;;24.00;1.00;;;;;;5073980;28;20475;-72
2021/07/29 12:47:12;;;;;;;11.77;2.90;;;24.30;1.00;;;;;;5059837;28;20067;-72
2021/07/29 12:50:02;;;;;;;5.38;3.17;;;24.30;1.00;;;;;;5075787;28;20044;-71
2021/07/29 12:53:08;;;;;;;7.05;3.00;;;24.50;1.00;;;;;;5085213;28;20136;-72
2021/07/29 12:55:56;;;;;;;4.55;3.15;;;25.20;1.00;;;;;;5067808;28;20050;-71
2021/07/29 12:58:47;;;;;;;3.97;2.67;;;23.80;1.00;;;;;;5076754;28;20063;-72
2021/07/29 13:01:37;;;;;;;3.00;2.70;;;24.30;1.00;;;;;;5073907;28;20177;-72
2021/07/29 13:04:27;;;;;;;7.50;3.20;;;24.90;1.00;;;;;;5078376;28;20503;-72
2021/07/29 13:07:16;;;;;;;2.95;2.55;;;24.40;1.00;;;;;;5079362;28;20949;-73
2021/07/29 13:10:07;;;;;;;3.30;2.95;;;24.50;1.00;;;;;;5076176;28;20048;-71
2021/07/29 13:12:58;;;;;;;5.45;2.90;;;24.50;1.00;;;;;;5074546;28;20139;-71
2021/07/29 13:15:46;;;;;;;3.42;2.70;;;23.90;1.00;;;;;;5074317;28;20135;-71
2021/07/29 13:18:37;;;;;;;3.35;2.83;;;24.30;1.00;;;;;;5077725;28;20048;-72
2021/07/29 13:21:25;;;;;;;4.68;2.92;;;24.20;1.00;;;;;;5079780;28;20979;-73
2021/07/29 13:24:16;;;;;;;5.80;3.10;;;23.90;1.00;;;;;;5076419;28;20426;-72
2021/07/29 13:27:06;;;;;;;7.80;3.22;;;24.00;1.00;;;;;;5071193;28;20036;-74
2021/07/29 13:29:57;;;;;;;3.72;2.65;;;23.90;1.00;;;;;;5075240;28;20044;-71
2021/07/29 13:32:46;;;;;;;4.40;2.80;;;23.90;1.00;;;;;;5078935;28;20082;-72
2021/07/29 13:35:34;;;;;;;4.25;2.72;;;23.60;1.00;;;;;;5059361;28;20434;-71
2021/07/29 13:38:23;;;;;;;4.15;2.38;;;24.50;1.00;;;;;;5076110;28;20097;-72
2021/07/29 13:41:12;;;;;;;4.35;2.55;;;24.70;1.00;;;;;;5070371;28;20533;-72
2021/07/29 13:44:07;;;;;;;3.50;2.67;;;25.60;1.00;;;;;;5078848;28;20066;-72
2021/07/29 13:46:55;;;;;;;4.13;2.90;;;24.10;1.00;;;;;;5078130;28;20044;-71
2021/07/29 13:49:44;;;;;;;4.45;2.70;;;24.30;1.00;;;;;;5078564;28;20056;-72
2021/07/29 13:52:34;;;;;;;4.32;2.67;;;24.30;1.00;;;;;;5078671;28;20060;-72
2021/07/29 13:55:22;;;;;;;4.75;2.88;;;24.20;1.00;;;;;;5073247;28;20044;-71
2021/07/29 13:58:11;;;;;;;3.45;2.45;;;24.20;1.00;;;;;;5075684;28;20366;-72
2021/07/29 14:01:01;;;;;;;5.53;2.78;;;24.30;1.00;;;;;;5076388;28;20069;-72
2021/07/29 14:03:53;;;;;;;5.35;2.90;;;24.10;1.00;;;;;;5077196;28;20049;-72
2021/07/29 14:06:41;;;;;;;3.88;2.60;;;24.00;1.00;;;;;;5073812;28;20051;-72
2021/07/29 14:09:31;;;;;;;3.30;2.70;;;24.20;1.00;;;;;;5063214;28;20128;-71
2021/07/29 14:12:23;;;;;;;11.00;3.00;;;24.20;1.00;;;;;;5082290;28;20217;-71
2021/07/29 14:15:13;;;;;;;3.45;2.55;;;24.80;1.00;;;;;;5081247;28;20527;-71
2021/07/29 14:18:05;;;;;;;3.70;2.80;;;24.80;1.00;;;;;;5079167;28;20463;-72
2021/07/29 14:21:03;;;;;;;4.80;2.75;;;25.10;1.00;;;;;;5076387;28;20059;-72
2021/07/29 14:23:50;;;;;;;5.38;2.58;;;24.50;1.00;;;;;;5077298;28;20555;-71
2021/07/29 14:26:39;;;;;;;4.13;2.70;;;24.70;1.00;;;;;;5084234;28;20056;-71
2021/07/29 14:29:34;;;;;;;3.50;2.63;;;24.10;1.00;;;;;;5066248;28;20473;-73
2021/07/29 14:32:22;;;;;;;3.00;2.70;;;23.90;1.00;;;;;;5079833;28;20051;-71
2021/07/29 14:35:15;;;;;;;5.10;2.80;;;24.40;1.00;;;;;;5073063;28;20044;-71
2021/07/29 14:38:05;;;;;;;3.88;2.95;;;24.30;1.00;;;;;;5076018;28;20059;-72
2021/07/29 14:40:54;;;;;;;6.47;2.83;;;24.70;1.00;;;;;;5066368;28;20189;-72
2021/07/29 14:43:44;;;;;;;4.60;3.00;;;25.00;1.00;;;;;;5078605;28;20060;-72
2021/07/29 14:49:42;;;;;;;3.15;2.40;;;24.10;1.00;;;;;;5077491;28;20108;-72
2021/07/29 14:52:32;;;;;;;5.65;2.70;;;24.70;1.00;;;;;;5081747;28;20556;-72
2021/07/29 14:55:25;;;;;;;4.65;2.75;;;24.20;1.00;;;;;;5077068;28;20120;-71
2021/07/29 15:18:18;;;;;;;2.65;2.45;;;24.30;1.00;;;;;;5079966;28;20048;-71